Etusivu
METAR-TAF:

METAR-TAF

Lentoasemat :

Draugen, Norja

Leveyspiiri: 64-21-20N, Pituuspiiri: 007-47-30E, korkeus merenpinnasta: 0 m

Tämänhetkinen sää

Tämä raportti tehtiin 15 minuuttia sitten, kello 23.20 UTC
Tuuli 20 kn lännestä/luoteesta
Lämpötila 13°C
Kosteus 100%
Ilmanpaine 1014 hPa
Näkyvyys 10 km tai enemmän

METAR: ENDR 172320Z AUTO 29020KT 9999NDV OVC007/// 13/13 Q1014 W///S3

Aika: 01:35 (23:35 UTC)


TAF: puuttuu

Säähavainnot ja -ennusteet yli 4000 lentoasemalta (METAR- ja TAF-raportit).

Käytössä olevat sääasemat on merkitty karttaan keltaisilla ja punaisilla pisteillä.

Aseta hiiri pisteen päälle nähdäksesi sääaseman nimen.

Klikkaa sitten nähdäksesi säähavainnot ja -ennusteet.

Kartan vaihtaminen: klikkaa mustalla rastilla varustettuja vihreitä pisteitä, niin voit zoomata sisään; viivalla varustettua vihreää pistettä, niin voit zoomata ulos tai vihreitä nuolia, niin pääset viereisille kartoille.


METAR-TAF: